Time;durP1;ratioP1;P1;durP2;ratioP2;P2;SDS_P1;SDS_P2;PMS_P1;PMS_P2;Temp;Humidity;BMP_temperature;BMP_pressure;BME280_temperature;BME280_humidity;BME280_pressure;Samples;Min_cycle;Max_cycle;Signal;HPM_P1;HPM_P2
2022/05/16 00:01:05;;;;;;;3.23;1.60;;;;;;;;;;5005856;28;20262;-64
2022/05/16 00:03:32;;;;;;;2.23;1.70;;;;;;;;;;5006773;28;20727;-63
2022/05/16 00:06:00;;;;;;;2.30;1.80;;;;;;;;;;5002773;28;20290;-63
2022/05/16 00:08:27;;;;;;;2.80;1.80;;;;;;;;;;5008219;28;20203;-63
2022/05/16 00:10:54;;;;;;;4.57;1.70;;;;;;;;;;5004500;28;20254;-63
2022/05/16 00:13:22;;;;;;;2.63;1.80;;;;;;;;;;5011273;28;20195;-63
2022/05/16 00:15:49;;;;;;;2.80;1.77;;;;;;;;;;5002798;28;20200;-63
2022/05/16 00:18:16;;;;;;;2.17;1.77;;;;;;;;;;5003736;28;20222;-63
2022/05/16 00:20:43;;;;;;;2.00;1.67;;;;;;;;;;5009179;28;20203;-63
2022/05/16 00:23:11;;;;;;;2.00;1.90;;;;;;;;;;5009609;28;20203;-62
2022/05/16 00:25:38;;;;;;;2.70;1.60;;;;;;;;;;5005472;28;20274;-63
2022/05/16 00:28:05;;;;;;;3.20;1.93;;;;;;;;;;5008811;28;20251;-63
2022/05/16 00:30:32;;;;;;;3.43;1.90;;;;;;;;;;5002629;28;20222;-63
2022/05/16 00:32:59;;;;;;;3.00;1.80;;;;;;;;;;5008488;28;20204;-63
2022/05/16 00:35:26;;;;;;;3.30;1.73;;;;;;;;;;5008559;28;20199;-63
2022/05/16 00:37:53;;;;;;;4.03;2.07;;;;;;;;;;5007925;28;20237;-63
2022/05/16 00:40:21;;;;;;;2.00;1.73;;;;;;;;;;5007831;28;20202;-63
2022/05/16 00:42:48;;;;;;;3.93;1.80;;;;;;;;;;5008928;28;20218;-63
2022/05/16 00:45:16;;;;;;;1.80;1.60;;;;;;;;;;5009188;28;20244;-63
2022/05/16 00:47:44;;;;;;;3.10;2.03;;;;;;;;;;5007589;28;20846;-63
2022/05/16 00:50:12;;;;;;;3.37;1.80;;;;;;;;;;5011700;28;20188;-63
2022/05/16 00:52:41;;;;;;;2.03;1.83;;;;;;;;;;5001753;28;20384;-63
2022/05/16 00:55:13;;;;;;;2.03;1.70;;;;;;;;;;5010442;28;20208;-63
2022/05/16 00:57:45;;;;;;;2.70;1.90;;;;;;;;;;5003459;28;20206;-63
2022/05/16 01:00:12;;;;;;;2.37;1.90;;;;;;;;;;5007985;28;20576;-63
2022/05/16 01:05:27;;;;;;;2.87;2.07;;;;;;;;;;5004648;28;20220;-63
2022/05/16 01:07:58;;;;;;;3.27;2.10;;;;;;;;;;5006218;28;20764;-63
2022/05/16 01:10:25;;;;;;;1.97;1.77;;;;;;;;;;5006883;28;20689;-63
2022/05/16 01:12:53;;;;;;;2.07;1.77;;;;;;;;;;5008823;28;20195;-63
2022/05/16 01:15:38;;;;;;;3.10;1.90;;;;;;;;;;5012943;28;20445;-63
2022/05/16 01:18:07;;;;;;;2.63;2.00;;;;;;;;;;5004956;28;20743;-63
2022/05/16 01:20:52;;;;;;;2.57;1.70;;;;;;;;;;5006780;28;20208;-63
2022/05/16 01:23:22;;;;;;;1.80;1.70;;;;;;;;;;5008720;28;20692;-62
2022/05/16 01:25:50;;;;;;;1.93;1.73;;;;;;;;;;5008733;28;20207;-64
2022/05/16 01:28:22;;;;;;;2.87;1.70;;;;;;;;;;5001566;28;20220;-65
2022/05/16 01:30:50;;;;;;;2.73;2.03;;;;;;;;;;5009682;28;20669;-64
2022/05/16 01:33:18;;;;;;;2.70;1.83;;;;;;;;;;5007293;28;20203;-64
2022/05/16 01:35:46;;;;;;;3.20;2.07;;;;;;;;;;5006957;28;20202;-64
2022/05/16 01:38:21;;;;;;;2.60;1.97;;;;;;;;;;5005186;28;20344;-64
2022/05/16 01:40:56;;;;;;;3.47;2.10;;;;;;;;;;5004878;28;20778;-64
2022/05/16 01:43:25;;;;;;;2.37;1.90;;;;;;;;;;5006840;28;20297;-64
2022/05/16 01:45:52;;;;;;;2.03;1.70;;;;;;;;;;4995288;28;20215;-64
2022/05/16 01:48:20;;;;;;;3.27;2.00;;;;;;;;;;5003168;28;20204;-63
2022/05/16 01:50:48;;;;;;;1.90;1.50;;;;;;;;;;5010726;28;20212;-64
2022/05/16 01:53:16;;;;;;;2.00;1.80;;;;;;;;;;5005105;28;20216;-64
2022/05/16 01:55:43;;;;;;;2.70;1.67;;;;;;;;;;5010328;28;20203;-64
2022/05/16 01:58:10;;;;;;;1.90;1.70;;;;;;;;;;5006889;28;20266;-64
2022/05/16 02:00:38;;;;;;;2.63;2.00;;;;;;;;;;5006981;28;20207;-64
2022/05/16 02:03:05;;;;;;;2.00;1.80;;;;;;;;;;5006855;28;20215;-63
2022/05/16 02:05:33;;;;;;;2.23;2.00;;;;;;;;;;5009639;28;20220;-64
2022/05/16 02:08:00;;;;;;;3.70;2.20;;;;;;;;;;5006072;28;20232;-64
2022/05/16 02:10:28;;;;;;;4.70;2.03;;;;;;;;;;5009923;28;20247;-63
2022/05/16 02:12:59;;;;;;;2.87;2.07;;;;;;;;;;5007614;28;20266;-64
2022/05/16 02:15:27;;;;;;;4.90;1.93;;;;;;;;;;5011838;28;20203;-64
2022/05/16 02:17:55;;;;;;;1.80;1.70;;;;;;;;;;4998706;28;20231;-64
2022/05/16 02:20:22;;;;;;;2.60;2.00;;;;;;;;;;5004836;28;20580;-64
2022/05/16 02:25:36;;;;;;;2.13;1.87;;;;;;;;;;4988563;28;20238;-63
2022/05/16 02:28:05;;;;;;;3.37;2.00;;;;;;;;;;5006255;28;20223;-63
2022/05/16 02:30:32;;;;;;;2.27;1.80;;;;;;;;;;5003021;28;20204;-63
2022/05/16 02:32:59;;;;;;;3.00;2.00;;;;;;;;;;5004962;28;21364;-63
2022/05/16 02:35:26;;;;;;;2.90;2.20;;;;;;;;;;5002711;28;20196;-63
2022/05/16 02:37:58;;;;;;;2.97;1.80;;;;;;;;;;5005137;28;20340;-62
2022/05/16 02:40:26;;;;;;;4.43;1.80;;;;;;;;;;5000785;28;20196;-65
2022/05/16 02:42:53;;;;;;;2.70;2.10;;;;;;;;;;5005858;28;20207;-62
2022/05/16 02:45:21;;;;;;;2.73;2.00;;;;;;;;;;5002246;28;20199;-64
2022/05/16 02:47:49;;;;;;;2.67;1.87;;;;;;;;;;5004130;28;20230;-63
2022/05/16 02:50:16;;;;;;;2.30;1.93;;;;;;;;;;5007774;28;20205;-65
2022/05/16 02:52:43;;;;;;;2.80;2.30;;;;;;;;;;5003534;28;20235;-64
2022/05/16 02:55:10;;;;;;;2.47;1.93;;;;;;;;;;4992446;28;20256;-63
2022/05/16 02:57:37;;;;;;;3.37;2.00;;;;;;;;;;5006031;28;20200;-64
2022/05/16 03:00:08;;;;;;;2.30;2.07;;;;;;;;;;5002952;28;20285;-64
2022/05/16 03:02:36;;;;;;;3.50;2.00;;;;;;;;;;5003654;28;20400;-64
2022/05/16 03:05:04;;;;;;;3.70;2.13;;;;;;;;;;5004916;28;20794;-64
2022/05/16 03:07:32;;;;;;;2.47;2.00;;;;;;;;;;5013170;28;20243;-64
2022/05/16 03:09:59;;;;;;;2.03;1.87;;;;;;;;;;4988744;28;20242;-64
2022/05/16 03:12:26;;;;;;;2.10;1.90;;;;;;;;;;5000485;28;20235;-64
2022/05/16 03:14:53;;;;;;;2.13;1.90;;;;;;;;;;5006829;28;20200;-65
2022/05/16 03:17:20;;;;;;;2.73;1.90;;;;;;;;;;5002968;28;20215;-64
2022/05/16 03:19:47;;;;;;;3.07;2.00;;;;;;;;;;5006028;28;20214;-64
2022/05/16 03:22:15;;;;;;;2.63;1.97;;;;;;;;;;4998810;28;20220;-64
2022/05/16 03:24:43;;;;;;;2.43;1.70;;;;;;;;;;5005695;28;20211;-64
2022/05/16 03:27:10;;;;;;;2.07;1.90;;;;;;;;;;5005509;28;20203;-64
2022/05/16 03:29:38;;;;;;;1.80;1.70;;;;;;;;;;5003553;28;20211;-64
2022/05/16 03:32:06;;;;;;;2.37;1.90;;;;;;;;;;5006459;28;20202;-64
2022/05/16 03:34:34;;;;;;;2.80;2.10;;;;;;;;;;5002553;28;20218;-64
2022/05/16 03:37:01;;;;;;;2.33;1.70;;;;;;;;;;5006858;28;20200;-64
2022/05/16 03:42:14;;;;;;;2.53;1.97;;;;;;;;;;4994057;28;20298;-63
2022/05/16 03:44:41;;;;;;;1.77;1.67;;;;;;;;;;4996314;28;20200;-64
2022/05/16 03:47:09;;;;;;;3.13;2.00;;;;;;;;;;4994996;28;20195;-64
2022/05/16 03:49:36;;;;;;;2.43;1.80;;;;;;;;;;5001493;28;20192;-64
2022/05/16 03:52:03;;;;;;;2.17;1.90;;;;;;;;;;4997484;28;20195;-64
2022/05/16 03:54:30;;;;;;;2.60;1.53;;;;;;;;;;4994240;28;20266;-64
2022/05/16 03:56:57;;;;;;;1.83;1.70;;;;;;;;;;5003782;28;20197;-61
2022/05/16 03:59:24;;;;;;;3.17;1.73;;;;;;;;;;4981690;28;20901;-62
2022/05/16 04:01:53;;;;;;;1.60;1.50;;;;;;;;;;5007302;28;20196;-61
2022/05/16 04:04:23;;;;;;;1.70;1.60;;;;;;;;;;5003134;28;20850;-61
2022/05/16 04:06:52;;;;;;;4.83;2.20;;;;;;;;;;5010667;28;20208;-61
2022/05/16 04:09:22;;;;;;;3.33;1.97;;;;;;;;;;5008313;28;20227;-62
2022/05/16 04:11:52;;;;;;;2.63;1.83;;;;;;;;;;5009949;28;20192;-63
2022/05/16 04:14:29;;;;;;;2.50;1.67;;;;;;;;;;5006723;28;20277;-63
2022/05/16 04:16:59;;;;;;;3.80;1.90;;;;;;;;;;5010785;28;20596;-62
2022/05/16 04:19:31;;;;;;;2.07;1.87;;;;;;;;;;5008399;28;20211;-62
2022/05/16 04:22:03;;;;;;;1.77;1.67;;;;;;;;;;5010438;28;20550;-64
2022/05/16 04:24:35;;;;;;;2.47;1.70;;;;;;;;;;5004791;28;20574;-64
2022/05/16 04:27:10;;;;;;;2.70;2.10;;;;;;;;;;5007384;28;20277;-62
2022/05/16 04:29:45;;;;;;;3.60;2.07;;;;;;;;;;4989926;28;20584;-63
2022/05/16 04:32:15;;;;;;;2.30;2.00;;;;;;;;;;4993914;28;20622;-62
2022/05/16 04:34:45;;;;;;;2.00;1.87;;;;;;;;;;5008535;28;20239;-62
2022/05/16 04:37:14;;;;;;;2.63;1.77;;;;;;;;;;4990713;28;20211;-62
2022/05/16 04:39:47;;;;;;;1.90;1.70;;;;;;;;;;5006810;28;20286;-62
2022/05/16 04:45:08;;;;;;;2.07;1.87;;;;;;;;;;5003969;28;20214;-64
2022/05/16 04:47:38;;;;;;;2.20;1.73;;;;;;;;;;4999555;28;20240;-64
2022/05/16 04:50:07;;;;;;;2.53;1.70;;;;;;;;;;4991184;28;20215;-64
2022/05/16 04:52:37;;;;;;;2.10;1.80;;;;;;;;;;4992406;28;20354;-63
2022/05/16 04:55:05;;;;;;;2.93;1.90;;;;;;;;;;4990751;28;20208;-62
2022/05/16 04:57:32;;;;;;;1.80;1.70;;;;;;;;;;5012620;28;20672;-62
2022/05/16 05:00:00;;;;;;;2.60;1.80;;;;;;;;;;5006782;28;20207;-62
2022/05/16 05:02:27;;;;;;;3.20;1.80;;;;;;;;;;5006527;28;20192;-62
2022/05/16 05:04:56;;;;;;;1.70;1.60;;;;;;;;;;4987845;28;20311;-63
2022/05/16 05:07:27;;;;;;;2.87;1.70;;;;;;;;;;5008592;28;20194;-62
2022/05/16 05:15:40;;;;;;;1.97;1.63;;;;;;;;;;5007244;28;20203;-61
2022/05/16 05:18:09;;;;;;;2.47;1.80;;;;;;;;;;5007076;28;20219;-61
2022/05/16 05:20:38;;;;;;;2.53;1.70;;;;;;;;;;5003558;28;20208;-62
2022/05/16 05:23:11;;;;;;;2.93;1.90;;;;;;;;;;5006708;28;20203;-62
2022/05/16 05:25:46;;;;;;;4.50;1.90;;;;;;;;;;5008464;28;20227;-64
2022/05/16 05:28:19;;;;;;;2.63;1.87;;;;;;;;;;5003693;28;20309;-63
2022/05/16 05:30:49;;;;;;;2.87;2.20;;;;;;;;;;5007979;28;20207;-62
2022/05/16 05:33:19;;;;;;;3.83;1.80;;;;;;;;;;5007852;28;20188;-62
2022/05/16 05:35:49;;;;;;;2.97;2.00;;;;;;;;;;5007445;28;20204;-62
2022/05/16 05:38:20;;;;;;;3.23;2.10;;;;;;;;;;5007548;28;20222;-62
2022/05/16 05:40:50;;;;;;;6.77;2.97;;;;;;;;;;5002468;28;20227;-62
2022/05/16 05:43:19;;;;;;;3.47;2.10;;;;;;;;;;5003015;28;20200;-62
2022/05/16 05:45:51;;;;;;;7.63;3.13;;;;;;;;;;5002893;28;20379;-61
2022/05/16 05:48:25;;;;;;;6.63;2.33;;;;;;;;;;4995419;28;20211;-62
2022/05/16 05:50:57;;;;;;;3.97;2.60;;;;;;;;;;4993536;28;20201;-63
2022/05/16 05:53:28;;;;;;;7.40;2.77;;;;;;;;;;4998996;28;20236;-63
2022/05/16 05:56:02;;;;;;;6.87;2.60;;;;;;;;;;4978651;28;20195;-62
2022/05/16 05:58:35;;;;;;;5.80;2.90;;;;;;;;;;4991306;28;20681;-62
2022/05/16 06:01:08;;;;;;;6.57;2.67;;;;;;;;;;4993782;28;20537;-62
2022/05/16 06:03:40;;;;;;;4.50;2.60;;;;;;;;;;4998272;28;20195;-62
2022/05/16 06:06:10;;;;;;;5.23;2.90;;;;;;;;;;5003848;28;20234;-62
2022/05/16 06:08:41;;;;;;;5.43;2.80;;;;;;;;;;4990622;28;20231;-62
2022/05/16 06:11:12;;;;;;;5.77;2.70;;;;;;;;;;4982956;28;20294;-62
2022/05/16 06:13:43;;;;;;;7.83;2.77;;;;;;;;;;5012508;28;20209;-62
2022/05/16 06:16:12;;;;;;;6.93;2.97;;;;;;;;;;5000043;28;20200;-62
2022/05/16 06:18:41;;;;;;;2.77;2.37;;;;;;;;;;4996003;28;20215;-62
2022/05/16 06:21:16;;;;;;;4.47;2.70;;;;;;;;;;5000293;28;20206;-62
2022/05/16 06:23:46;;;;;;;3.87;2.57;;;;;;;;;;4994023;28;20665;-62
2022/05/16 06:26:13;;;;;;;3.50;2.50;;;;;;;;;;4995028;28;20199;-62
2022/05/16 06:28:41;;;;;;;6.90;2.37;;;;;;;;;;4992502;28;20338;-62
2022/05/16 06:31:10;;;;;;;3.67;2.60;;;;;;;;;;4995061;28;20351;-63
2022/05/16 06:33:46;;;;;;;5.27;2.30;;;;;;;;;;5003307;28;20208;-64
2022/05/16 06:36:18;;;;;;;4.17;2.73;;;;;;;;;;4994458;28;20195;-61
2022/05/16 06:38:49;;;;;;;6.97;2.77;;;;;;;;;;4984319;28;20202;-63
2022/05/16 06:41:19;;;;;;;8.37;2.10;;;;;;;;;;5004905;28;20239;-65
2022/05/16 06:43:49;;;;;;;4.70;2.33;;;;;;;;;;4990348;28;20571;-64
2022/05/16 06:46:16;;;;;;;3.93;2.73;;;;;;;;;;5006388;28;20195;-62
2022/05/16 06:48:46;;;;;;;3.67;2.40;;;;;;;;;;5005364;28;20297;-63
2022/05/16 06:51:18;;;;;;;8.63;3.00;;;;;;;;;;5020706;28;20601;-62
2022/05/16 06:53:51;;;;;;;7.67;3.17;;;;;;;;;;5003119;28;20206;-63
2022/05/16 06:56:20;;;;;;;5.73;2.90;;;;;;;;;;5008509;28;20818;-63
2022/05/16 06:58:48;;;;;;;3.77;2.60;;;;;;;;;;5010378;28;20196;-64
2022/05/16 07:01:15;;;;;;;4.17;2.70;;;;;;;;;;5005672;28;20204;-62
2022/05/16 07:03:43;;;;;;;4.97;3.20;;;;;;;;;;5008775;28;20203;-64
2022/05/16 07:06:16;;;;;;;15.00;6.50;;;;;;;;;;5002373;28;20270;-67
2022/05/16 07:08:43;;;;;;;17.07;5.77;;;;;;;;;;5007610;28;20223;-67
2022/05/16 07:11:10;;;;;;;12.20;6.00;;;;;;;;;;5013849;28;20239;-66
2022/05/16 07:13:37;;;;;;;12.80;6.20;;;;;;;;;;5005284;28;20192;-67
2022/05/16 07:16:05;;;;;;;11.57;5.83;;;;;;;;;;5008151;28;20400;-65
2022/05/16 07:18:32;;;;;;;13.93;6.07;;;;;;;;;;5000290;28;20243;-67
2022/05/16 07:20:59;;;;;;;13.33;6.23;;;;;;;;;;5000821;28;20212;-66
2022/05/16 07:23:27;;;;;;;15.67;5.47;;;;;;;;;;5009666;28;20636;-66
2022/05/16 07:28:41;;;;;;;9.70;5.17;;;;;;;;;;5009250;28;20249;-65
2022/05/16 07:31:09;;;;;;;16.53;6.20;;;;;;;;;;5012640;28;20199;-68
2022/05/16 07:33:36;;;;;;;10.17;4.70;;;;;;;;;;5017049;28;20195;-68
2022/05/16 07:36:06;;;;;;;8.70;4.00;;;;;;;;;;5012389;28;20207;-67
2022/05/16 07:38:36;;;;;;;9.93;4.47;;;;;;;;;;5024034;28;20502;-68
2022/05/16 07:41:10;;;;;;;7.23;4.13;;;;;;;;;;5021566;28;20215;-66
2022/05/16 07:43:38;;;;;;;9.17;4.03;;;;;;;;;;5011685;28;20202;-66
2022/05/16 07:46:08;;;;;;;10.97;3.90;;;;;;;;;;4994829;28;20218;-65
2022/05/16 07:48:40;;;;;;;7.07;3.73;;;;;;;;;;5011428;28;20939;-65
2022/05/16 07:51:10;;;;;;;6.27;3.70;;;;;;;;;;5011979;28;20268;-66
2022/05/16 07:53:40;;;;;;;5.20;3.43;;;;;;;;;;4992310;28;20223;-66
2022/05/16 07:56:09;;;;;;;6.53;3.97;;;;;;;;;;5014876;28;20853;-64
2022/05/16 07:58:36;;;;;;;5.27;3.20;;;;;;;;;;5007746;28;20870;-65
2022/05/16 08:01:04;;;;;;;5.13;2.90;;;;;;;;;;5011349;28;20833;-66
2022/05/16 08:03:32;;;;;;;5.17;3.10;;;;;;;;;;5014165;28;20719;-66
2022/05/16 08:05:59;;;;;;;7.17;3.03;;;;;;;;;;5006129;28;20215;-67
2022/05/16 08:11:14;;;;;;;7.07;3.70;;;;;;;;;;5007866;28;20243;-63
2022/05/16 08:13:42;;;;;;;10.17;3.83;;;;;;;;;;5011326;28;20188;-64
2022/05/16 08:16:09;;;;;;;6.67;3.63;;;;;;;;;;5010157;28;20204;-64
2022/05/16 08:18:37;;;;;;;6.87;4.07;;;;;;;;;;5008580;28;20250;-64
2022/05/16 08:21:04;;;;;;;7.00;3.30;;;;;;;;;;5012310;28;20215;-65
2022/05/16 08:23:31;;;;;;;7.57;3.57;;;;;;;;;;5012250;28;20192;-64
2022/05/16 08:26:01;;;;;;;4.87;3.23;;;;;;;;;;5011958;28;20199;-65
2022/05/16 08:28:28;;;;;;;8.90;3.60;;;;;;;;;;5006269;28;20760;-66
2022/05/16 08:30:55;;;;;;;5.60;3.33;;;;;;;;;;5016645;28;20191;-65
2022/05/16 08:33:24;;;;;;;6.13;2.90;;;;;;;;;;5012020;28;20266;-65
2022/05/16 08:39:52;;;;;;;12.73;3.70;;;;;;;;;;5001673;28;20200;-67
2022/05/16 08:41:32;;;;;;;4.07;2.93;;;;;;;;;;4995995;28;20219;-66
2022/05/16 08:44:15;;;;;;;5.80;3.07;;;;;;;;;;4994863;28;20545;-66
2022/05/16 08:46:55;;;;;;;12.53;3.43;;;;;;;;;;5010153;28;20246;-65
2022/05/16 08:49:33;;;;;;;8.23;2.87;;;;;;;;;;5024077;28;20207;-65
2022/05/16 08:52:09;;;;;;;4.40;3.10;;;;;;;;;;5003511;28;20207;-65
2022/05/16 08:54:46;;;;;;;4.23;2.70;;;;;;;;;;5009178;28;20226;-64
2022/05/16 08:57:29;;;;;;;4.37;2.60;;;;;;;;;;5006382;28;20199;-64
2022/05/16 09:00:01;;;;;;;3.77;2.50;;;;;;;;;;4987279;28;20656;-63
2022/05/16 09:02:36;;;;;;;4.73;2.73;;;;;;;;;;5002851;28;20901;-66
2022/05/16 09:05:19;;;;;;;4.07;2.60;;;;;;;;;;5010094;28;20219;-66
2022/05/16 09:07:51;;;;;;;4.80;2.60;;;;;;;;;;5007937;28;20261;-65
2022/05/16 09:10:36;;;;;;;5.77;2.57;;;;;;;;;;5014517;28;20238;-65
2022/05/16 09:13:27;;;;;;;4.40;2.60;;;;;;;;;;5010372;28;20214;-66
2022/05/16 09:16:05;;;;;;;4.60;2.47;;;;;;;;;;5002129;28;20184;-66
2022/05/16 09:18:54;;;;;;;7.07;2.40;;;;;;;;;;5002739;28;20211;-66
2022/05/16 09:21:44;;;;;;;3.73;2.20;;;;;;;;;;5022307;28;20258;-66
2022/05/16 09:24:16;;;;;;;6.30;2.30;;;;;;;;;;5005543;28;20195;-66
2022/05/16 09:26:50;;;;;;;4.30;2.40;;;;;;;;;;5001839;28;20211;-65
2022/05/16 09:29:39;;;;;;;5.40;2.80;;;;;;;;;;4999414;28;20339;-65
2022/05/16 09:32:12;;;;;;;4.13;2.47;;;;;;;;;;5007875;28;20204;-66
2022/05/16 09:34:41;;;;;;;7.10;2.60;;;;;;;;;;5007139;28;20180;-67
2022/05/16 09:37:09;;;;;;;5.37;2.47;;;;;;;;;;4988763;28;20203;-66
2022/05/16 09:39:43;;;;;;;5.97;2.40;;;;;;;;;;5011972;28;20199;-67
2022/05/16 09:42:15;;;;;;;5.37;2.30;;;;;;;;;;5004709;28;20601;-66
2022/05/16 09:44:55;;;;;;;13.60;2.70;;;;;;;;;;5005812;28;20211;-67
2022/05/16 09:47:32;;;;;;;3.77;2.40;;;;;;;;;;5007590;28;20195;-66
2022/05/16 09:50:11;;;;;;;8.00;2.57;;;;;;;;;;5012619;28;20212;-67
2022/05/16 09:52:46;;;;;;;4.63;2.50;;;;;;;;;;5005671;28;20255;-67
2022/05/16 09:55:30;;;;;;;7.13;2.10;;;;;;;;;;5008296;28;20221;-66
2022/05/16 09:58:01;;;;;;;4.40;2.30;;;;;;;;;;5007037;28;20643;-66
2022/05/16 10:00:44;;;;;;;2.13;1.93;;;;;;;;;;5008584;28;20194;-67
2022/05/16 10:03:33;;;;;;;2.87;2.00;;;;;;;;;;5006842;28;20254;-64
2022/05/16 10:06:03;;;;;;;5.93;2.37;;;;;;;;;;5008104;28;20230;-64
2022/05/16 10:08:33;;;;;;;3.50;2.27;;;;;;;;;;4983223;28;20196;-66
2022/05/16 10:11:04;;;;;;;3.47;2.43;;;;;;;;;;5004374;28;20242;-64
2022/05/16 10:13:34;;;;;;;3.43;2.20;;;;;;;;;;5003747;28;20198;-64
2022/05/16 10:16:04;;;;;;;5.67;2.17;;;;;;;;;;4999219;28;20192;-64
2022/05/16 10:18:36;;;;;;;5.33;2.30;;;;;;;;;;5014848;28;20215;-65
2022/05/16 10:21:09;;;;;;;3.73;2.37;;;;;;;;;;4991298;28;20218;-64
2022/05/16 10:23:40;;;;;;;3.27;2.13;;;;;;;;;;5006013;28;20417;-64
2022/05/16 10:26:12;;;;;;;2.90;2.27;;;;;;;;;;5020285;28;20200;-64
2022/05/16 10:28:46;;;;;;;3.57;2.43;;;;;;;;;;5002866;28;20225;-64
2022/05/16 10:34:12;;;;;;;2.67;2.40;;;;;;;;;;4998832;28;20234;-64
2022/05/16 10:36:39;;;;;;;4.33;2.30;;;;;;;;;;5010306;28;20219;-64
2022/05/16 10:39:08;;;;;;;3.73;2.43;;;;;;;;;;5003685;28;20197;-64
2022/05/16 10:41:40;;;;;;;4.43;2.00;;;;;;;;;;5002779;28;20204;-64
2022/05/16 10:44:26;;;;;;;3.33;1.90;;;;;;;;;;5006394;28;20206;-63
2022/05/16 10:47:00;;;;;;;5.57;2.70;;;;;;;;;;4988899;28;20829;-64
2022/05/16 10:49:34;;;;;;;5.20;2.67;;;;;;;;;;5005257;28;20223;-64
2022/05/16 10:52:30;;;;;;;6.77;3.27;;;;;;;;;;4996266;28;20202;-64
2022/05/16 10:54:59;;;;;;;3.63;2.63;;;;;;;;;;4997756;28;20203;-66
2022/05/16 10:57:40;;;;;;;7.63;2.90;;;;;;;;;;5005139;28;20208;-65
2022/05/16 11:00:18;;;;;;;5.53;2.87;;;;;;;;;;5010450;28;20212;-65
2022/05/16 11:02:59;;;;;;;8.90;3.30;;;;;;;;;;4990571;28;20208;-65
2022/05/16 11:05:42;;;;;;;4.53;2.83;;;;;;;;;;5004370;28;20219;-66
2022/05/16 11:08:38;;;;;;;6.77;3.10;;;;;;;;;;5002359;28;20226;-66
2022/05/16 11:11:18;;;;;;;4.07;2.63;;;;;;;;;;5004424;28;20274;-65
2022/05/16 11:13:50;;;;;;;5.13;3.13;;;;;;;;;;4989750;28;20191;-65
2022/05/16 11:16:18;;;;;;;7.37;2.97;;;;;;;;;;5004804;28;20795;-66
2022/05/16 11:19:05;;;;;;;4.47;3.10;;;;;;;;;;5006126;28;20200;-64
2022/05/16 11:21:52;;;;;;;5.27;3.03;;;;;;;;;;5007215;28;20196;-65
2022/05/16 11:24:44;;;;;;;11.37;3.60;;;;;;;;;;5002785;28;20210;-64
2022/05/16 11:27:30;;;;;;;5.43;3.20;;;;;;;;;;5013605;28;20196;-65
2022/05/16 11:30:11;;;;;;;8.20;3.40;;;;;;;;;;4997999;28;20238;-65
2022/05/16 11:32:39;;;;;;;7.00;3.80;;;;;;;;;;5004901;28;20191;-65
2022/05/16 11:35:20;;;;;;;7.63;3.73;;;;;;;;;;5005781;28;20199;-64
2022/05/16 11:38:09;;;;;;;8.70;3.60;;;;;;;;;;5005722;28;20195;-64
2022/05/16 11:41:04;;;;;;;7.87;4.00;;;;;;;;;;4999298;28;20203;-64
2022/05/16 11:43:32;;;;;;;6.10;3.73;;;;;;;;;;4990234;28;20203;-64
2022/05/16 11:46:03;;;;;;;5.90;4.20;;;;;;;;;;4988861;28;20340;-64
2022/05/16 11:48:42;;;;;;;5.70;4.13;;;;;;;;;;4999063;28;20208;-63
2022/05/16 11:51:29;;;;;;;9.97;5.00;;;;;;;;;;5007376;28;20784;-66
2022/05/16 11:53:58;;;;;;;8.77;3.93;;;;;;;;;;5003277;28;20607;-66
2022/05/16 12:02:25;;;;;;;4.93;3.73;;;;;;;;;;5010871;28;20211;-66
2022/05/16 12:04:53;;;;;;;6.33;4.07;;;;;;;;;;5004057;28;20220;-66
2022/05/16 12:07:42;;;;;;;5.17;3.57;;;;;;;;;;5006533;28;20426;-66
2022/05/16 12:10:11;;;;;;;8.77;4.40;;;;;;;;;;5010735;28;20243;-65
2022/05/16 12:12:40;;;;;;;5.70;3.80;;;;;;;;;;5015131;28;20267;-65
2022/05/16 12:15:25;;;;;;;4.47;3.80;;;;;;;;;;5010104;28;20531;-66
2022/05/16 12:18:02;;;;;;;5.93;3.83;;;;;;;;;;5007821;28;20251;-65
2022/05/16 12:20:46;;;;;;;5.63;3.60;;;;;;;;;;5007367;28;20207;-65
2022/05/16 12:23:35;;;;;;;6.63;4.00;;;;;;;;;;5012360;28;20625;-65
2022/05/16 12:26:10;;;;;;;7.13;3.90;;;;;;;;;;5006110;28;20224;-65
2022/05/16 12:28:41;;;;;;;6.17;3.47;;;;;;;;;;5002371;28;20222;-67
2022/05/16 12:31:11;;;;;;;5.63;3.90;;;;;;;;;;5013464;28;20346;-67
2022/05/16 12:33:55;;;;;;;4.23;3.50;;;;;;;;;;5010227;28;20204;-67
2022/05/16 12:36:25;;;;;;;4.60;3.27;;;;;;;;;;5006530;28;20207;-66
2022/05/16 12:39:26;;;;;;;5.50;3.70;;;;;;;;;;5002485;28;20214;-65
2022/05/16 12:42:02;;;;;;;5.47;3.60;;;;;;;;;;4961031;28;20216;-66
2022/05/16 12:44:47;;;;;;;4.63;3.50;;;;;;;;;;4969563;28;20220;-66
2022/05/16 12:47:22;;;;;;;5.90;3.60;;;;;;;;;;4991626;28;20258;-67
2022/05/16 12:50:08;;;;;;;5.27;3.80;;;;;;;;;;5008196;28;20214;-66
2022/05/16 12:52:54;;;;;;;4.47;3.90;;;;;;;;;;5008054;28;20346;-67
2022/05/16 12:55:36;;;;;;;5.83;4.43;;;;;;;;;;4985774;28;20263;-66
2022/05/16 12:58:11;;;;;;;5.70;4.00;;;;;;;;;;4993293;28;20206;-66
2022/05/16 13:00:48;;;;;;;5.40;4.47;;;;;;;;;;5009245;28;20254;-66
2022/05/16 13:03:38;;;;;;;5.63;4.43;;;;;;;;;;5010956;28;20756;-66
2022/05/16 13:06:35;;;;;;;6.93;5.03;;;;;;;;;;5001277;28;20597;-65
2022/05/16 13:09:14;;;;;;;6.30;5.43;;;;;;;;;;4990382;28;20589;-66
2022/05/16 13:12:12;;;;;;;6.03;5.17;;;;;;;;;;5005557;28;20233;-68
2022/05/16 13:15:09;;;;;;;9.23;5.40;;;;;;;;;;5008075;28;20192;-67
2022/05/16 13:17:58;;;;;;;7.80;6.10;;;;;;;;;;4991089;28;20222;-68
2022/05/16 13:20:34;;;;;;;7.60;5.37;;;;;;;;;;5005673;28;20603;-69
2022/05/16 13:23:07;;;;;;;7.70;6.20;;;;;;;;;;4989644;28;20196;-69
2022/05/16 13:31:33;;;;;;;7.93;6.07;;;;;;;;;;5006896;28;20269;-67
2022/05/16 13:34:04;;;;;;;9.27;5.93;;;;;;;;;;5006221;28;20188;-68
2022/05/16 13:36:34;;;;;;;11.97;6.63;;;;;;;;;;5005021;28;20195;-67
2022/05/16 13:39:14;;;;;;;9.13;7.00;;;;;;;;;;5010633;28;20633;-67
2022/05/16 13:41:45;;;;;;;11.57;7.90;;;;;;;;;;5021168;28;20239;-67
2022/05/16 13:44:16;;;;;;;9.77;8.23;;;;;;;;;;5010326;28;20203;-65
2022/05/16 13:46:47;;;;;;;11.13;8.33;;;;;;;;;;5006302;28;20535;-68
2022/05/16 13:49:17;;;;;;;9.93;8.70;;;;;;;;;;5013497;28;20196;-66
2022/05/16 13:51:52;;;;;;;9.07;7.90;;;;;;;;;;5007511;28;20266;-66
2022/05/16 13:54:29;;;;;;;9.23;7.47;;;;;;;;;;5001646;28;20215;-67
2022/05/16 13:57:12;;;;;;;9.00;7.20;;;;;;;;;;5006621;28;20195;-67
2022/05/16 13:59:41;;;;;;;10.17;7.20;;;;;;;;;;5011251;28;20203;-65
2022/05/16 14:02:14;;;;;;;8.57;7.67;;;;;;;;;;5007521;28;20508;-69
2022/05/16 14:04:51;;;;;;;8.03;7.23;;;;;;;;;;5001454;28;20212;-65
2022/05/16 14:07:37;;;;;;;8.70;7.80;;;;;;;;;;5005392;28;20633;-67
2022/05/16 14:10:10;;;;;;;10.50;8.20;;;;;;;;;;5002015;28;20247;-64
2022/05/16 14:12:44;;;;;;;11.37;7.10;;;;;;;;;;5004559;28;20199;-65
2022/05/16 14:15:27;;;;;;;10.63;8.33;;;;;;;;;;5006833;28;20199;-64
2022/05/16 14:17:59;;;;;;;9.00;8.10;;;;;;;;;;5019006;28;20215;-64
2022/05/16 14:20:51;;;;;;;10.13;7.80;;;;;;;;;;5008465;28;20203;-65
2022/05/16 14:23:32;;;;;;;8.87;8.07;;;;;;;;;;4999173;28;20246;-65
2022/05/16 14:26:17;;;;;;;8.57;7.53;;;;;;;;;;4989174;28;20206;-63
2022/05/16 14:28:51;;;;;;;9.67;8.67;;;;;;;;;;5007488;28;20227;-66
2022/05/16 14:31:22;;;;;;;12.90;7.70;;;;;;;;;;5011878;28;20220;-66
2022/05/16 14:33:57;;;;;;;9.07;7.70;;;;;;;;;;4999080;28;20625;-66
2022/05/16 14:36:33;;;;;;;10.23;8.73;;;;;;;;;;5003280;28;20556;-67
2022/05/16 14:39:23;;;;;;;9.37;8.27;;;;;;;;;;5025211;28;20242;-68
2022/05/16 14:42:07;;;;;;;8.50;7.70;;;;;;;;;;5004700;28;20224;-66
2022/05/16 14:44:38;;;;;;;8.73;7.83;;;;;;;;;;4998893;28;20392;-66
2022/05/16 14:47:39;;;;;;;9.63;7.73;;;;;;;;;;5019723;28;20221;-65
2022/05/16 14:50:12;;;;;;;9.47;8.47;;;;;;;;;;5007179;28;20393;-65
2022/05/16 14:52:41;;;;;;;9.60;7.90;;;;;;;;;;5000549;28;20823;-65
2022/05/16 14:55:09;;;;;;;10.30;8.13;;;;;;;;;;5008124;28;20192;-63
2022/05/16 14:57:39;;;;;;;9.40;7.53;;;;;;;;;;5005284;28;20196;-68
2022/05/16 15:04:02;;;;;;;9.80;7.87;;;;;;;;;;5009859;28;20273;-66
2022/05/16 15:05:42;;;;;;;7.20;6.50;;;;;;;;;;5000930;28;20285;-65
2022/05/16 15:08:12;;;;;;;7.70;6.90;;;;;;;;;;5006689;28;20214;-66
2022/05/16 15:10:41;;;;;;;8.10;6.20;;;;;;;;;;5004826;28;20310;-66
2022/05/16 15:13:08;;;;;;;7.97;5.33;;;;;;;;;;5007004;28;20229;-66
2022/05/16 15:15:37;;;;;;;6.43;5.77;;;;;;;;;;4984970;28;20210;-66
2022/05/16 15:18:04;;;;;;;5.67;5.07;;;;;;;;;;5002468;28;20262;-65
2022/05/16 15:20:31;;;;;;;6.90;5.47;;;;;;;;;;5008874;28;20261;-64
2022/05/16 15:22:59;;;;;;;5.70;5.00;;;;;;;;;;5006839;28;20659;-65
2022/05/16 15:25:26;;;;;;;7.33;4.60;;;;;;;;;;5010813;28;20207;-66
2022/05/16 15:27:53;;;;;;;8.10;4.93;;;;;;;;;;5005953;28;20302;-68
2022/05/16 15:30:20;;;;;;;6.10;4.70;;;;;;;;;;5005028;28;20222;-67
2022/05/16 15:32:50;;;;;;;5.10;4.60;;;;;;;;;;4989260;28;20201;-68
2022/05/16 15:35:18;;;;;;;5.87;4.50;;;;;;;;;;5010231;28;20199;-65
2022/05/16 15:37:51;;;;;;;5.40;4.20;;;;;;;;;;5010780;28;20277;-66
2022/05/16 15:40:20;;;;;;;4.80;4.10;;;;;;;;;;5004059;28;20611;-64
2022/05/16 15:42:49;;;;;;;5.37;4.00;;;;;;;;;;4995221;28;20270;-67
2022/05/16 15:45:17;;;;;;;4.67;4.00;;;;;;;;;;5000222;28;20215;-65
2022/05/16 15:47:48;;;;;;;6.20;4.40;;;;;;;;;;5001889;28;20263;-66
2022/05/16 15:50:20;;;;;;;5.23;4.23;;;;;;;;;;4990528;28;20191;-64
2022/05/16 15:52:49;;;;;;;7.57;4.30;;;;;;;;;;5009008;28;20296;-64
2022/05/16 15:55:17;;;;;;;8.30;4.10;;;;;;;;;;5013640;28;20785;-65
2022/05/16 15:57:45;;;;;;;7.80;4.80;;;;;;;;;;5016424;28;20211;-64